Terminal Aerodrome Forecast
Issued by NWS

Home | Current Version | Previous Version | Text Only | Print | Product List | Glossary On
Versions: 1 2 3 4 5 6 7 8 9 10 11 12 13 14 15 16 17 18 19
876
FTUS43 KBIS 181724
TAFDIK
TAF
KDIK 181724Z 1818/1918 27019G27KT P6SM OVC080
     FM190000 31014KT P6SM VCSH OVC045
     FM190300 31011KT P6SM OVC050
     FM190600 29007KT P6SM SCT100=

USA.gov is the U.S. government's official web portal to all federal, state and local government web resources and services.